Eastampton Township, New Jersey
Current Conditions -  °F | °C
As of 2:54 AM on Saturday 25 Oct 2014 (Local Time) from KVAY Reporting Station
Clear Clear  
Wind Chill: 46°   Ceiling: Unl
Heat Index: 46°   Visibility: 10mi
Dew Point: 38°   Wind: 3mph
Humidity: 73%   Direction: 190°S
Pressure: 29.89"   Gusts: NA
Location:  39.9896°N, 74.8021°W
Report Text: KVAY 250654Z AUTO 19003KT 10SM CLR 08/03 A2989 RMK AO2 SLP122 T00780033
Loading
Personal Weather Stations






























Interactive Weather Map
Tropical Storm Tracking
New forecast layout! Learn more

10-Day Weather Forecast

Advertisements
Track Severe Weather on mobile